createdAt,value
2017-08-10T00:01:12.079Z,15.43
2017-08-10T00:03:40.986Z,15.60
2017-08-10T00:06:10.698Z,15.90
2017-08-10T00:08:40.345Z,20.50
2017-08-10T00:11:09.241Z,20.60
2017-08-10T00:13:38.166Z,16.15
2017-08-10T00:16:07.083Z,13.93
2017-08-10T00:18:36.771Z,15.50
2017-08-10T00:21:06.653Z,15.85
2017-08-10T00:23:35.581Z,17.40
2017-08-10T00:26:04.495Z,17.85
2017-08-10T00:28:34.206Z,16.83
2017-08-10T00:31:03.875Z,16.50
2017-08-10T00:33:32.784Z,15.98
2017-08-10T00:36:02.354Z,18.00
2017-08-10T00:38:31.262Z,20.15
2017-08-10T00:41:00.186Z,16.65
2017-08-10T00:43:29.092Z,16.67
2017-08-10T00:45:58.769Z,18.48
2017-08-10T00:48:27.683Z,17.08
2017-08-10T00:50:56.666Z,17.37
2017-08-10T00:53:25.246Z,16.23
2017-08-10T00:55:54.172Z,17.02
2017-08-10T00:58:23.088Z,17.05
2017-08-10T01:00:52.003Z,19.08
2017-08-10T01:03:20.932Z,20.00
2017-08-10T01:05:49.855Z,16.33
2017-08-10T01:08:18.778Z,16.35
2017-08-10T01:10:47.359Z,16.70
2017-08-10T01:13:16.769Z,17.05
2017-08-10T01:15:45.692Z,15.82
2017-08-10T01:18:14.571Z,14.48
2017-08-10T01:20:43.492Z,13.88
2017-08-10T01:23:13.180Z,12.05
2017-08-10T01:25:42.098Z,13.02
2017-08-10T01:28:11.808Z,12.75
2017-08-10T01:30:40.713Z,13.52
2017-08-10T01:33:09.617Z,11.02
2017-08-10T01:35:38.520Z,9.18
2017-08-10T01:38:07.436Z,10.30
2017-08-10T01:40:36.090Z,10.38
2017-08-10T01:43:04.978Z,10.38
2017-08-10T01:45:33.880Z,10.27
2017-08-10T01:48:02.789Z,10.70
2017-08-10T01:50:31.690Z,11.60
2017-08-10T01:53:00.965Z,11.32
2017-08-10T01:55:29.869Z,15.95
2017-08-10T01:57:58.426Z,10.25
2017-08-10T02:00:27.889Z,9.77
2017-08-10T02:02:56.100Z,9.50
2017-08-10T02:05:25.762Z,8.18
2017-08-10T02:07:54.312Z,9.40
2017-08-10T02:10:23.201Z,8.10
2017-08-10T02:12:52.088Z,7.97
2017-08-10T02:15:21.000Z,14.43
2017-08-10T02:17:49.923Z,15.38
2017-08-10T02:20:18.830Z,12.63
2017-08-10T02:22:47.733Z,12.60
2017-08-10T02:25:17.407Z,11.65
2017-08-10T02:27:46.338Z,11.48
2017-08-10T02:30:15.276Z,10.98
2017-08-10T02:32:44.210Z,12.07
2017-08-10T02:35:14.137Z,11.07
2017-08-10T02:37:43.831Z,12.75
2017-08-10T02:40:12.751Z,11.85
2017-08-10T02:42:41.855Z,12.32
2017-08-10T02:45:10.781Z,12.13
2017-08-10T02:47:40.486Z,12.73
2017-08-10T02:50:09.431Z,14.25
2017-08-10T02:52:39.131Z,13.65
2017-08-10T02:55:08.059Z,15.93
2017-08-10T02:57:36.986Z,14.93
2017-08-10T03:00:05.899Z,15.45
2017-08-10T03:02:34.776Z,14.55
2017-08-10T03:05:03.992Z,14.40
2017-08-10T03:07:32.909Z,15.35
2017-08-10T03:10:01.838Z,15.75
2017-08-10T03:12:30.746Z,20.88
2017-08-10T03:14:59.624Z,19.52
2017-08-10T03:17:28.507Z,20.65
2017-08-10T03:19:57.429Z,21.10
2017-08-10T03:22:26.335Z,21.20
2017-08-10T03:24:55.269Z,16.77
2017-08-10T03:27:24.172Z,19.90
2017-08-10T03:29:53.074Z,22.23
2017-08-10T03:32:21.986Z,24.85
2017-08-10T03:34:50.884Z,20.80
2017-08-10T03:37:19.785Z,22.62
2017-08-10T03:39:48.708Z,25.05
2017-08-10T03:42:17.580Z,26.75
2017-08-10T03:44:47.288Z,24.85
2017-08-10T03:47:16.204Z,27.95
2017-08-10T03:49:45.884Z,26.10
2017-08-10T03:52:14.798Z,27.02
2017-08-10T03:54:44.484Z,27.92
2017-08-10T03:57:13.401Z,30.27
2017-08-10T03:59:42.334Z,27.25
2017-08-10T04:02:11.239Z,33.42
2017-08-10T04:04:40.182Z,29.55
2017-08-10T04:07:09.826Z,28.45
2017-08-10T04:09:38.746Z,28.05
2017-08-10T04:12:07.678Z,27.35
2017-08-10T04:14:37.364Z,29.87
2017-08-10T04:17:06.290Z,29.70
2017-08-10T04:19:35.214Z,28.15
2017-08-10T04:22:04.120Z,30.52
2017-08-10T04:24:32.989Z,29.02
2017-08-10T04:27:01.896Z,31.65
2017-08-10T04:29:30.806Z,28.45
2017-08-10T04:31:59.520Z,32.20
2017-08-10T04:34:29.207Z,36.22
2017-08-10T04:36:58.078Z,29.95
2017-08-10T04:39:26.994Z,36.10
2017-08-10T04:41:55.891Z,33.35
2017-08-10T04:44:24.747Z,33.20
2017-08-10T04:46:53.676Z,31.85
2017-08-10T04:49:22.565Z,37.15
2017-08-10T04:51:51.542Z,41.17
2017-08-10T04:54:20.450Z,33.03
2017-08-10T04:56:49.360Z,31.85
2017-08-10T04:59:19.042Z,37.95
2017-08-10T05:01:47.944Z,37.50
2017-08-10T05:04:16.866Z,40.22
2017-08-10T05:06:46.537Z,36.88
2017-08-10T05:09:15.449Z,41.45
2017-08-10T05:11:45.307Z,33.97
2017-08-10T05:14:14.227Z,36.67
2017-08-10T05:19:38.063Z,32.33
2017-08-10T05:22:12.056Z,30.35
2017-08-10T05:24:40.953Z,32.10
2017-08-10T05:27:11.377Z,46.80
2017-08-10T05:29:41.049Z,39.88
2017-08-10T05:32:09.951Z,33.60
2017-08-10T05:34:38.869Z,33.83
2017-08-10T05:37:07.783Z,47.08
2017-08-10T05:39:37.448Z,29.90
2017-08-10T05:42:06.354Z,31.08
2017-08-10T05:44:35.257Z,39.13
2017-08-10T05:47:04.164Z,31.45
2017-08-10T05:52:15.820Z,34.00
2017-08-10T05:57:50.410Z,29.25
2017-08-10T06:03:09.686Z,31.58
2017-08-10T06:05:38.576Z,34.10
2017-08-10T06:08:07.210Z,36.67
2017-08-10T06:10:36.788Z,37.03
2017-08-10T06:13:06.462Z,40.40
2017-08-10T06:15:35.347Z,37.70
2017-08-10T06:18:04.255Z,37.20
2017-08-10T06:20:33.157Z,34.17
2017-08-10T06:23:02.064Z,31.40
2017-08-10T06:25:31.724Z,29.87
2017-08-10T06:28:00.622Z,26.98
2017-08-10T06:30:29.504Z,31.67
2017-08-10T06:32:58.413Z,35.45
2017-08-10T06:35:27.320Z,33.03
2017-08-10T06:37:56.308Z,35.67
2017-08-10T06:40:25.202Z,38.65
2017-08-10T06:42:54.096Z,43.10
2017-08-10T06:45:22.997Z,36.90
2017-08-10T06:47:51.903Z,39.45
2017-08-10T06:50:22.525Z,36.95
2017-08-10T06:52:51.421Z,39.83
2017-08-10T06:55:20.286Z,38.63
2017-08-10T06:57:49.196Z,37.30
2017-08-10T07:00:18.110Z,47.60
2017-08-10T07:02:47.373Z,40.20
2017-08-10T07:05:16.268Z,48.80
2017-08-10T07:07:45.173Z,35.60
2017-08-10T07:10:14.066Z,42.80
2017-08-10T07:12:42.952Z,36.28
2017-08-10T07:15:11.856Z,34.45
2017-08-10T07:17:41.537Z,46.97
2017-08-10T07:20:10.447Z,38.67
2017-08-10T07:22:39.344Z,41.70
2017-08-10T07:25:08.238Z,46.37
2017-08-10T07:27:37.105Z,43.38
2017-08-10T07:30:06.021Z,44.30
2017-08-10T07:32:35.711Z,43.80
2017-08-10T07:35:04.644Z,39.88
2017-08-10T07:37:33.550Z,39.45
2017-08-10T07:40:02.459Z,43.70
2017-08-10T07:42:31.391Z,35.45
2017-08-10T07:45:00.302Z,39.80
2017-08-10T07:47:29.993Z,41.10
2017-08-10T07:49:58.902Z,49.10
2017-08-10T07:52:27.805Z,36.42
2017-08-10T07:54:56.701Z,41.28
2017-08-10T07:57:25.614Z,36.05
2017-08-10T07:59:54.520Z,43.40
2017-08-10T08:02:23.417Z,36.08
2017-08-10T08:04:52.341Z,41.05
2017-08-10T08:07:21.254Z,32.00
2017-08-10T08:09:50.934Z,30.90
2017-08-10T08:12:19.866Z,35.30
2017-08-10T08:14:49.436Z,34.50
2017-08-10T08:17:18.352Z,31.60
2017-08-10T08:19:47.995Z,37.80
2017-08-10T08:22:16.854Z,34.55
2017-08-10T08:24:46.531Z,31.35
2017-08-10T08:27:15.422Z,36.00
2017-08-10T08:29:44.345Z,36.13
2017-08-10T08:32:13.243Z,38.45
2017-08-10T08:34:42.891Z,43.05
2017-08-10T08:37:11.815Z,43.00
2017-08-10T08:39:40.711Z,34.75
2017-08-10T08:42:10.177Z,31.87
2017-08-10T08:44:39.083Z,36.63
2017-08-10T08:47:07.983Z,40.35
2017-08-10T08:49:36.886Z,38.88
2017-08-10T08:52:06.067Z,39.05
2017-08-10T08:54:34.984Z,30.88
2017-08-10T08:57:03.870Z,34.38
2017-08-10T08:59:32.762Z,35.15
2017-08-10T09:02:01.673Z,35.88
2017-08-10T09:04:30.581Z,32.70
2017-08-10T09:07:00.289Z,29.83
2017-08-10T09:09:29.201Z,37.25
2017-08-10T09:11:58.117Z,39.28
2017-08-10T09:14:27.025Z,37.97
2017-08-10T09:16:55.927Z,32.75
2017-08-10T09:19:24.838Z,30.45
2017-08-10T09:21:53.736Z,35.20
2017-08-10T09:24:23.422Z,36.35
2017-08-10T09:26:52.326Z,36.05
2017-08-10T09:29:21.227Z,31.15
2017-08-10T09:31:50.903Z,37.47
2017-08-10T09:34:19.810Z,31.27
2017-08-10T09:36:48.703Z,38.75
2017-08-10T09:39:17.619Z,33.85
2017-08-10T09:41:46.538Z,38.83
2017-08-10T09:44:15.437Z,33.63
2017-08-10T09:46:44.352Z,32.70
2017-08-10T09:49:13.269Z,31.50
2017-08-10T09:51:42.157Z,36.45
2017-08-10T09:54:11.072Z,37.63
2017-08-10T09:56:39.988Z,36.60
2017-08-10T09:59:08.883Z,33.78
2017-08-10T10:01:37.786Z,41.20
2017-08-10T10:04:06.690Z,36.55
2017-08-10T10:06:35.597Z,32.78
2017-08-10T10:09:03.640Z,48.90
2017-08-10T10:11:32.542Z,40.00
2017-08-10T10:14:01.442Z,37.92
2017-08-10T10:16:30.350Z,34.83
2017-08-10T10:18:59.254Z,44.15
2017-08-10T10:21:28.116Z,42.17
2017-08-10T10:23:57.021Z,39.35
2017-08-10T10:26:25.935Z,40.42
2017-08-10T10:28:55.614Z,38.33
2017-08-10T10:31:24.530Z,37.53
2017-08-10T10:33:53.398Z,40.03
2017-08-10T10:36:22.317Z,39.97
2017-08-10T10:38:51.225Z,43.83
2017-08-10T10:41:20.150Z,36.55
2017-08-10T10:43:49.043Z,31.73
2017-08-10T10:46:17.948Z,34.42
2017-08-10T10:48:46.858Z,30.08
2017-08-10T10:51:15.775Z,32.13
2017-08-10T10:53:44.673Z,30.23
2017-08-10T10:56:13.569Z,30.70
2017-08-10T10:58:43.220Z,32.33
2017-08-10T11:01:12.117Z,28.60
2017-08-10T11:03:41.022Z,26.90
2017-08-10T11:06:09.942Z,30.52
2017-08-10T11:08:38.842Z,27.08
2017-08-10T11:11:07.745Z,28.17
2017-08-10T11:13:37.408Z,33.08
2017-08-10T11:16:06.300Z,29.05
2017-08-10T11:18:35.208Z,27.45
2017-08-10T11:21:04.119Z,28.35
2017-08-10T11:23:33.035Z,27.25
2017-08-10T11:26:01.955Z,28.02
2017-08-10T11:28:30.851Z,33.50
2017-08-10T11:30:59.743Z,31.10
2017-08-10T11:33:28.646Z,30.83
2017-08-10T11:35:57.523Z,31.10
2017-08-10T11:38:26.418Z,34.25
2017-08-10T11:40:55.281Z,33.03
2017-08-10T11:43:24.194Z,30.35
2017-08-10T11:45:53.122Z,31.17
2017-08-10T11:48:22.038Z,30.42
2017-08-10T11:50:51.715Z,30.90
2017-08-10T11:53:20.421Z,31.02
2017-08-10T11:55:49.334Z,29.70
2017-08-10T11:58:18.242Z,28.55
2017-08-10T12:00:47.142Z,28.83
2017-08-10T12:03:16.038Z,30.17
2017-08-10T12:05:44.951Z,26.33
2017-08-10T12:08:13.856Z,26.90
2017-08-10T12:10:42.753Z,25.40
2017-08-10T12:13:13.084Z,28.30
2017-08-10T12:15:42.003Z,28.40
2017-08-10T12:18:10.918Z,27.52
2017-08-10T12:20:39.832Z,24.23
2017-08-10T12:23:08.747Z,25.70
2017-08-10T12:25:37.653Z,30.25
2017-08-10T12:28:06.361Z,24.45
2017-08-10T12:30:35.338Z,24.83
2017-08-10T12:33:05.025Z,22.90
2017-08-10T12:35:33.940Z,23.20
2017-08-10T12:38:03.618Z,23.65
2017-08-10T12:40:32.534Z,23.73
2017-08-10T12:43:02.026Z,23.92
2017-08-10T12:45:30.931Z,22.27
2017-08-10T12:47:59.842Z,24.23
2017-08-10T12:50:28.722Z,23.62
2017-08-10T12:52:58.391Z,26.62
2017-08-10T12:55:27.301Z,23.48
2017-08-10T12:57:56.205Z,22.70
2017-08-10T13:00:25.086Z,21.30
2017-08-10T13:02:53.993Z,22.27
2017-08-10T13:05:22.894Z,26.10
2017-08-10T13:07:52.557Z,22.60
2017-08-10T13:10:21.438Z,23.38
2017-08-10T13:12:50.338Z,23.70
2017-08-10T13:15:19.254Z,23.20
2017-08-10T13:17:48.189Z,20.60
2017-08-10T13:20:17.063Z,22.55
2017-08-10T13:22:46.743Z,20.10
2017-08-10T13:25:15.658Z,23.30
2017-08-10T13:27:44.579Z,24.77
2017-08-10T13:30:13.500Z,28.62
2017-08-10T13:32:42.410Z,22.80
2017-08-10T13:35:11.316Z,24.75
2017-08-10T13:37:40.232Z,20.20
2017-08-10T13:40:09.901Z,19.85
2017-08-10T13:42:38.805Z,22.25
2017-08-10T13:45:07.701Z,21.50
2017-08-10T13:47:36.607Z,19.90
2017-08-10T13:50:05.512Z,18.25
2017-08-10T13:52:35.180Z,18.60
2017-08-10T13:55:04.098Z,19.12
2017-08-10T13:57:33.734Z,16.05
2017-08-10T14:00:02.652Z,17.75
2017-08-10T14:02:31.564Z,16.77
2017-08-10T14:05:01.259Z,18.37
2017-08-10T14:07:30.180Z,19.08
2017-08-10T14:09:59.099Z,15.85
2017-08-10T14:12:28.776Z,18.65
2017-08-10T14:14:57.648Z,14.48
2017-08-10T14:17:26.573Z,13.00
2017-08-10T14:19:55.481Z,13.98
2017-08-10T14:22:31.027Z,13.75
2017-08-10T14:25:00.699Z,16.62
2017-08-10T14:27:29.620Z,18.65
2017-08-10T14:29:58.531Z,15.18
2017-08-10T14:32:27.517Z,16.85
2017-08-10T14:34:56.434Z,15.02
2017-08-10T14:37:25.333Z,15.85
2017-08-10T14:39:54.209Z,18.02
2017-08-10T14:42:23.123Z,15.45
2017-08-10T14:44:52.035Z,13.88
2017-08-10T14:47:20.940Z,16.08
2017-08-10T14:49:52.105Z,15.10
2017-08-10T15:01:01.554Z,17.83
2017-08-10T15:03:30.473Z,15.70
2017-08-10T15:05:59.403Z,16.77
2017-08-10T15:08:29.103Z,16.83
2017-08-10T15:10:59.077Z,18.70
2017-08-10T15:13:27.987Z,16.60
2017-08-10T15:15:57.764Z,18.48
2017-08-10T15:18:26.772Z,17.50
2017-08-10T15:20:55.684Z,18.35
2017-08-10T15:23:24.601Z,16.95
2017-08-10T15:25:53.581Z,20.05
2017-08-10T15:28:22.494Z,19.62
2017-08-10T15:30:52.170Z,18.87
2017-08-10T15:33:21.073Z,20.67
2017-08-10T15:35:49.982Z,18.77
2017-08-10T15:38:18.854Z,18.92
2017-08-10T15:40:47.778Z,17.60
2017-08-10T15:43:17.463Z,19.40
2017-08-10T15:45:47.031Z,19.00
2017-08-10T15:48:15.934Z,21.15
2017-08-10T15:50:44.797Z,20.67
2017-08-10T15:53:13.692Z,19.45
2017-08-10T15:55:42.610Z,20.90
2017-08-10T15:58:11.591Z,22.87
2017-08-10T16:00:40.150Z,21.58
2017-08-10T16:03:09.054Z,21.23
2017-08-10T16:05:37.960Z,24.12
2017-08-10T16:08:06.953Z,25.08
2017-08-10T16:10:35.850Z,23.67
2017-08-10T16:13:04.749Z,23.35
2017-08-10T16:15:33.658Z,22.98
2017-08-10T16:18:02.574Z,23.20
2017-08-10T16:20:32.240Z,22.98
2017-08-10T16:23:01.150Z,22.33
2017-08-10T16:25:30.079Z,23.30
2017-08-10T16:27:59.763Z,23.87
2017-08-10T16:30:28.698Z,24.45
2017-08-10T16:32:57.608Z,23.15
2017-08-10T16:35:27.447Z,25.00
2017-08-10T16:37:56.358Z,23.27
2017-08-10T16:40:25.837Z,22.05
2017-08-10T16:42:55.268Z,23.42
2017-08-10T16:45:24.167Z,22.67
2017-08-10T16:47:53.111Z,21.83
2017-08-10T16:50:22.009Z,21.60
2017-08-10T16:52:50.919Z,22.65
2017-08-10T16:55:19.788Z,21.75
2017-08-10T16:57:48.698Z,23.38
2017-08-10T17:00:17.629Z,22.73
2017-08-10T17:02:47.255Z,21.12
2017-08-10T17:05:16.172Z,21.83
2017-08-10T17:07:45.070Z,21.80
2017-08-10T17:10:13.979Z,21.40
2017-08-10T17:12:42.950Z,20.40
2017-08-10T17:15:11.844Z,22.13
2017-08-10T17:17:40.736Z,20.37
2017-08-10T17:20:09.935Z,21.83
2017-08-10T17:22:38.853Z,21.30
2017-08-10T17:25:07.759Z,21.30
2017-08-10T17:27:36.658Z,20.58
2017-08-10T17:30:05.568Z,19.10
2017-08-10T17:32:35.204Z,19.35
2017-08-10T17:35:06.732Z,20.60
2017-08-10T17:40:15.817Z,19.73
2017-08-10T17:42:44.711Z,17.73
2017-08-10T17:45:13.605Z,17.45
2017-08-10T17:47:42.504Z,19.67
2017-08-10T17:50:11.412Z,16.35
2017-08-10T17:52:40.327Z,16.83
2017-08-10T17:55:10.005Z,16.50
2017-08-10T17:57:38.910Z,16.62
2017-08-10T18:00:07.816Z,14.73
2017-08-10T18:02:37.502Z,15.80
2017-08-10T18:05:06.421Z,15.95
2017-08-10T18:07:35.320Z,15.48
2017-08-10T18:10:04.964Z,15.50
2017-08-10T18:12:33.861Z,15.98
2017-08-10T18:15:02.754Z,18.55
2017-08-10T18:17:31.661Z,15.00
2017-08-10T18:20:00.546Z,14.50
2017-08-10T18:34:33.706Z,15.35
2017-08-10T18:46:05.805Z,15.70
2017-08-10T18:51:36.441Z,15.00
2017-08-10T20:02:18.373Z,15.43
2017-08-10T20:21:59.611Z,13.62
2017-08-10T20:24:42.202Z,12.80
2017-08-10T20:27:30.214Z,13.15
2017-08-10T20:33:16.712Z,11.68
2017-08-10T20:38:58.666Z,12.93
2017-08-10T20:41:47.483Z,15.80
2017-08-10T20:44:18.724Z,11.07
2017-08-10T20:47:18.363Z,15.75
2017-08-10T20:49:50.031Z,13.62
2017-08-10T20:55:07.390Z,13.93
2017-08-10T20:57:44.245Z,15.75
2017-08-10T21:09:09.235Z,12.98
2017-08-10T21:11:59.338Z,13.88
2017-08-10T21:15:02.872Z,12.63
2017-08-10T21:20:47.794Z,12.32
2017-08-10T23:15:56.998Z,16.90
2017-08-10T23:18:25.906Z,16.62
2017-08-10T23:20:55.590Z,18.80
2017-08-10T23:23:24.489Z,16.08
2017-08-10T23:25:53.398Z,16.10
2017-08-10T23:28:22.296Z,17.62
2017-08-10T23:30:51.961Z,17.58
2017-08-10T23:33:20.862Z,18.52
2017-08-10T23:35:49.758Z,18.25
2017-08-10T23:38:18.655Z,17.65
2017-08-10T23:40:47.553Z,18.92
2017-08-10T23:43:16.444Z,19.08
2017-08-10T23:45:45.345Z,20.25
2017-08-10T23:48:14.199Z,19.75
2017-08-10T23:50:43.113Z,18.40
2017-08-10T23:53:12.023Z,17.30
2017-08-10T23:55:40.922Z,17.08
2017-08-10T23:58:09.782Z,17.77
